Bogata, Texas
Current Conditions -  °F | °C
As of 7:15 PM on Sunday 21 Dec 2014 (Local Time) from KPRX Reporting Station
Overcast Overcast  
Wind Chill: 43°   Ceiling: 2000
Heat Index: 48°   Visibility: 10mi
Dew Point: 43°   Wind: 14mph
Humidity: 82%   Direction: 150°SSE
Pressure: 29.89"   Gusts: NA
Location:  33.47°N, 95.21°W
Report Text: KPRX 220115Z 15012KT 10SM OVC020 09/06 A2989 RMK AO1
Loading
Personal Weather Stations






























Interactive Weather Map New forecast layout! Learn more

10-Day Weather Forecast

Advertisements
Track Severe Weather on mobile